sensor_id;sensor_type;location;lat;lon;timestamp;P1;durP1;ratioP1;P2;durP2;ratioP2
31262;SDS011;17892;52.080;9.006;2022-12-07T00:01:22;6.68;;;3.88;;
31262;SDS011;17892;52.080;9.006;2022-12-07T00:03:58;6.28;;;3.38;;
31262;SDS011;17892;52.080;9.006;2022-12-07T00:06:30;5.35;;;3.60;;
31262;SDS011;17892;52.080;9.006;2022-12-07T00:09:01;5.53;;;3.28;;
31262;SDS011;17892;52.080;9.006;2022-12-07T00:11:29;7.05;;;4.05;;
31262;SDS011;17892;52.080;9.006;2022-12-07T00:13:56;5.75;;;3.85;;
31262;SDS011;17892;52.080;9.006;2022-12-07T00:16:26;9.32;;;6.20;;
31262;SDS011;17892;52.080;9.006;2022-12-07T00:18:54;6.70;;;3.78;;
31262;SDS011;17892;52.080;9.006;2022-12-07T00:21:22;6.43;;;3.45;;
31262;SDS011;17892;52.080;9.006;2022-12-07T00:23:51;10.48;;;5.72;;
31262;SDS011;17892;52.080;9.006;2022-12-07T00:26:19;6.63;;;4.25;;
31262;SDS011;17892;52.080;9.006;2022-12-07T00:28:47;7.70;;;4.38;;
31262;SDS011;17892;52.080;9.006;2022-12-07T00:31:18;14.55;;;6.40;;
31262;SDS011;17892;52.080;9.006;2022-12-07T00:33:45;9.95;;;5.60;;
31262;SDS011;17892;52.080;9.006;2022-12-07T00:36:13;8.68;;;4.95;;
31262;SDS011;17892;52.080;9.006;2022-12-07T00:38:46;14.07;;;6.10;;
31262;SDS011;17892;52.080;9.006;2022-12-07T00:41:13;11.68;;;5.50;;
31262;SDS011;17892;52.080;9.006;2022-12-07T00:43:42;21.52;;;6.30;;
31262;SDS011;17892;52.080;9.006;2022-12-07T00:46:08;7.65;;;4.40;;
31262;SDS011;17892;52.080;9.006;2022-12-07T00:48:35;11.18;;;5.60;;
31262;SDS011;17892;52.080;9.006;2022-12-07T00:51:01;15.65;;;6.20;;
31262;SDS011;17892;52.080;9.006;2022-12-07T00:53:28;12.07;;;5.35;;
31262;SDS011;17892;52.080;9.006;2022-12-07T00:55:54;14.07;;;6.25;;
31262;SDS011;17892;52.080;9.006;2022-12-07T00:58:21;10.85;;;6.15;;
31262;SDS011;17892;52.080;9.006;2022-12-07T01:00:48;16.55;;;6.85;;
31262;SDS011;17892;52.080;9.006;2022-12-07T01:03:14;19.42;;;7.63;;
31262;SDS011;17892;52.080;9.006;2022-12-07T01:05:48;16.63;;;5.47;;
31262;SDS011;17892;52.080;9.006;2022-12-07T01:08:16;8.27;;;4.85;;
31262;SDS011;17892;52.080;9.006;2022-12-07T01:10:42;7.07;;;4.50;;
31262;SDS011;17892;52.080;9.006;2022-12-07T01:13:08;9.38;;;5.43;;
31262;SDS011;17892;52.080;9.006;2022-12-07T01:15:33;9.50;;;5.47;;
31262;SDS011;17892;52.080;9.006;2022-12-07T01:17:59;8.18;;;4.78;;
31262;SDS011;17892;52.080;9.006;2022-12-07T01:20:25;8.52;;;4.78;;
31262;SDS011;17892;52.080;9.006;2022-12-07T01:22:50;11.57;;;6.38;;
31262;SDS011;17892;52.080;9.006;2022-12-07T01:25:16;11.32;;;6.40;;
31262;SDS011;17892;52.080;9.006;2022-12-07T01:27:42;8.23;;;5.60;;
31262;SDS011;17892;52.080;9.006;2022-12-07T01:30:09;11.80;;;6.63;;
31262;SDS011;17892;52.080;9.006;2022-12-07T01:32:38;9.02;;;5.22;;
31262;SDS011;17892;52.080;9.006;2022-12-07T01:35:04;9.77;;;5.90;;
31262;SDS011;17892;52.080;9.006;2022-12-07T01:37:37;10.77;;;6.07;;
31262;SDS011;17892;52.080;9.006;2022-12-07T01:40:04;8.48;;;5.28;;
31262;SDS011;17892;52.080;9.006;2022-12-07T01:42:32;10.52;;;5.55;;
31262;SDS011;17892;52.080;9.006;2022-12-07T01:46:00;9.32;;;5.45;;
31262;SDS011;17892;52.080;9.006;2022-12-07T01:48:00;9.25;;;4.57;;
31262;SDS011;17892;52.080;9.006;2022-12-07T01:50:26;14.13;;;7.35;;
31262;SDS011;17892;52.080;9.006;2022-12-07T01:52:54;12.38;;;6.75;;
31262;SDS011;17892;52.080;9.006;2022-12-07T01:55:21;10.38;;;5.45;;
31262;SDS011;17892;52.080;9.006;2022-12-07T01:57:49;13.10;;;6.18;;
31262;SDS011;17892;52.080;9.006;2022-12-07T02:00:17;11.70;;;7.22;;
31262;SDS011;17892;52.080;9.006;2022-12-07T02:02:48;11.90;;;6.45;;
31262;SDS011;17892;52.080;9.006;2022-12-07T02:05:29;11.68;;;6.32;;
31262;SDS011;17892;52.080;9.006;2022-12-07T02:07:56;12.82;;;7.10;;
31262;SDS011;17892;52.080;9.006;2022-12-07T02:10:24;9.85;;;5.63;;
31262;SDS011;17892;52.080;9.006;2022-12-07T02:13:00;13.18;;;6.80;;
31262;SDS011;17892;52.080;9.006;2022-12-07T02:18:48;10.27;;;5.68;;
31262;SDS011;17892;52.080;9.006;2022-12-07T02:21:45;8.75;;;5.30;;
31262;SDS011;17892;52.080;9.006;2022-12-07T02:30:26;10.45;;;5.13;;
31262;SDS011;17892;52.080;9.006;2022-12-07T02:35:42;8.32;;;4.53;;
31262;SDS011;17892;52.080;9.006;2022-12-07T02:43:56;8.68;;;5.13;;
31262;SDS011;17892;52.080;9.006;2022-12-07T02:46:29;9.55;;;4.93;;
31262;SDS011;17892;52.080;9.006;2022-12-07T02:49:03;8.38;;;4.53;;
31262;SDS011;17892;52.080;9.006;2022-12-07T02:51:30;12.18;;;4.80;;
31262;SDS011;17892;52.080;9.006;2022-12-07T02:53:57;9.48;;;4.55;;
31262;SDS011;17892;52.080;9.006;2022-12-07T02:56:28;10.25;;;5.00;;
31262;SDS011;17892;52.080;9.006;2022-12-07T03:04:42;7.88;;;3.58;;
31262;SDS011;17892;52.080;9.006;2022-12-07T03:08:15;8.13;;;3.53;;
31262;SDS011;17892;52.080;9.006;2022-12-07T03:10:52;7.78;;;3.97;;
31262;SDS011;17892;52.080;9.006;2022-12-07T03:16:15;8.55;;;4.63;;
31262;SDS011;17892;52.080;9.006;2022-12-07T03:18:49;11.55;;;5.75;;
31262;SDS011;17892;52.080;9.006;2022-12-07T03:21:30;11.82;;;5.43;;
31262;SDS011;17892;52.080;9.006;2022-12-07T03:24:10;7.78;;;4.25;;
31262;SDS011;17892;52.080;9.006;2022-12-07T03:26:41;12.70;;;5.63;;
31262;SDS011;17892;52.080;9.006;2022-12-07T03:29:20;9.88;;;5.32;;
31262;SDS011;17892;52.080;9.006;2022-12-07T03:32:39;11.80;;;5.25;;
31262;SDS011;17892;52.080;9.006;2022-12-07T03:34:57;9.05;;;4.85;;
31262;SDS011;17892;52.080;9.006;2022-12-07T03:37:49;7.40;;;4.25;;
31262;SDS011;17892;52.080;9.006;2022-12-07T03:40:54;10.25;;;4.70;;
31262;SDS011;17892;52.080;9.006;2022-12-07T03:43:28;6.63;;;3.58;;
31262;SDS011;17892;52.080;9.006;2022-12-07T03:45:59;8.00;;;3.60;;
31262;SDS011;17892;52.080;9.006;2022-12-07T03:48:59;6.65;;;3.47;;
31262;SDS011;17892;52.080;9.006;2022-12-07T03:51:45;7.63;;;3.67;;
31262;SDS011;17892;52.080;9.006;2022-12-07T03:54:18;6.97;;;3.50;;
31262;SDS011;17892;52.080;9.006;2022-12-07T03:56:51;7.57;;;3.25;;
31262;SDS011;17892;52.080;9.006;2022-12-07T03:59:18;7.50;;;3.35;;
31262;SDS011;17892;52.080;9.006;2022-12-07T04:01:45;10.23;;;4.28;;
31262;SDS011;17892;52.080;9.006;2022-12-07T04:04:19;7.22;;;4.00;;
31262;SDS011;17892;52.080;9.006;2022-12-07T04:06:46;9.73;;;3.88;;
31262;SDS011;17892;52.080;9.006;2022-12-07T04:09:12;7.93;;;3.45;;
31262;SDS011;17892;52.080;9.006;2022-12-07T04:11:39;6.72;;;3.45;;
31262;SDS011;17892;52.080;9.006;2022-12-07T04:14:05;6.63;;;3.17;;
31262;SDS011;17892;52.080;9.006;2022-12-07T04:16:43;8.80;;;4.47;;
31262;SDS011;17892;52.080;9.006;2022-12-07T04:19:24;7.82;;;3.35;;
31262;SDS011;17892;52.080;9.006;2022-12-07T04:21:56;7.85;;;3.97;;
31262;SDS011;17892;52.080;9.006;2022-12-07T04:24:24;8.52;;;4.65;;
31262;SDS011;17892;52.080;9.006;2022-12-07T04:26:50;7.10;;;3.15;;
31262;SDS011;17892;52.080;9.006;2022-12-07T04:29:16;8.77;;;3.53;;
31262;SDS011;17892;52.080;9.006;2022-12-07T04:31:43;7.10;;;3.25;;
31262;SDS011;17892;52.080;9.006;2022-12-07T04:34:09;8.93;;;4.25;;
31262;SDS011;17892;52.080;9.006;2022-12-07T04:36:36;7.00;;;3.22;;
31262;SDS011;17892;52.080;9.006;2022-12-07T04:39:03;8.52;;;3.92;;
31262;SDS011;17892;52.080;9.006;2022-12-07T04:41:31;6.10;;;2.83;;
31262;SDS011;17892;52.080;9.006;2022-12-07T04:43:59;6.38;;;3.03;;
31262;SDS011;17892;52.080;9.006;2022-12-07T04:46:29;7.68;;;3.22;;
31262;SDS011;17892;52.080;9.006;2022-12-07T04:48:56;9.77;;;3.42;;
31262;SDS011;17892;52.080;9.006;2022-12-07T04:51:24;6.05;;;3.65;;
31262;SDS011;17892;52.080;9.006;2022-12-07T04:53:53;8.05;;;3.00;;
31262;SDS011;17892;52.080;9.006;2022-12-07T04:56:20;5.82;;;3.00;;
31262;SDS011;17892;52.080;9.006;2022-12-07T04:58:47;5.20;;;2.65;;
31262;SDS011;17892;52.080;9.006;2022-12-07T05:01:14;6.53;;;3.80;;
31262;SDS011;17892;52.080;9.006;2022-12-07T05:03:41;6.45;;;3.53;;
31262;SDS011;17892;52.080;9.006;2022-12-07T05:06:09;6.05;;;3.10;;
31262;SDS011;17892;52.080;9.006;2022-12-07T05:08:36;6.28;;;3.38;;
31262;SDS011;17892;52.080;9.006;2022-12-07T05:11:02;7.68;;;3.80;;
31262;SDS011;17892;52.080;9.006;2022-12-07T05:13:30;5.53;;;3.15;;
31262;SDS011;17892;52.080;9.006;2022-12-07T05:15:57;5.90;;;2.88;;
31262;SDS011;17892;52.080;9.006;2022-12-07T05:18:22;6.72;;;3.00;;
31262;SDS011;17892;52.080;9.006;2022-12-07T05:20:48;7.82;;;3.03;;
31262;SDS011;17892;52.080;9.006;2022-12-07T05:23:15;5.25;;;2.53;;
31262;SDS011;17892;52.080;9.006;2022-12-07T05:25:42;6.20;;;2.83;;
31262;SDS011;17892;52.080;9.006;2022-12-07T05:28:08;5.43;;;2.70;;
31262;SDS011;17892;52.080;9.006;2022-12-07T05:30:34;5.43;;;3.03;;
31262;SDS011;17892;52.080;9.006;2022-12-07T05:32:59;7.75;;;3.40;;
31262;SDS011;17892;52.080;9.006;2022-12-07T05:35:25;6.07;;;2.38;;
31262;SDS011;17892;52.080;9.006;2022-12-07T05:37:51;4.63;;;1.77;;
31262;SDS011;17892;52.080;9.006;2022-12-07T05:40:17;6.55;;;3.10;;
31262;SDS011;17892;52.080;9.006;2022-12-07T05:42:44;5.78;;;2.97;;
31262;SDS011;17892;52.080;9.006;2022-12-07T05:45:10;5.18;;;2.67;;
31262;SDS011;17892;52.080;9.006;2022-12-07T05:47:37;7.07;;;2.90;;
31262;SDS011;17892;52.080;9.006;2022-12-07T05:50:03;7.68;;;3.20;;
31262;SDS011;17892;52.080;9.006;2022-12-07T05:52:30;4.90;;;2.60;;
31262;SDS011;17892;52.080;9.006;2022-12-07T05:54:56;6.78;;;3.25;;
31262;SDS011;17892;52.080;9.006;2022-12-07T05:57:22;7.70;;;3.45;;
31262;SDS011;17892;52.080;9.006;2022-12-07T05:59:47;7.45;;;2.90;;
31262;SDS011;17892;52.080;9.006;2022-12-07T06:02:14;5.72;;;2.30;;
31262;SDS011;17892;52.080;9.006;2022-12-07T06:04:45;7.53;;;3.33;;
31262;SDS011;17892;52.080;9.006;2022-12-07T06:07:12;5.90;;;2.58;;
31262;SDS011;17892;52.080;9.006;2022-12-07T06:09:40;7.70;;;3.08;;
31262;SDS011;17892;52.080;9.006;2022-12-07T06:12:06;8.50;;;3.28;;
31262;SDS011;17892;52.080;9.006;2022-12-07T06:14:54;7.38;;;3.20;;
31262;SDS011;17892;52.080;9.006;2022-12-07T06:17:20;5.57;;;2.85;;
31262;SDS011;17892;52.080;9.006;2022-12-07T06:19:46;5.50;;;2.40;;
31262;SDS011;17892;52.080;9.006;2022-12-07T06:22:12;4.53;;;2.20;;
31262;SDS011;17892;52.080;9.006;2022-12-07T06:24:38;4.50;;;2.17;;
31262;SDS011;17892;52.080;9.006;2022-12-07T06:27:05;10.23;;;3.30;;
31262;SDS011;17892;52.080;9.006;2022-12-07T06:29:31;4.97;;;2.40;;
31262;SDS011;17892;52.080;9.006;2022-12-07T06:31:57;5.13;;;2.35;;
31262;SDS011;17892;52.080;9.006;2022-12-07T06:34:23;4.50;;;2.08;;
31262;SDS011;17892;52.080;9.006;2022-12-07T06:36:50;4.70;;;2.33;;
31262;SDS011;17892;52.080;9.006;2022-12-07T06:39:19;5.18;;;2.47;;
31262;SDS011;17892;52.080;9.006;2022-12-07T06:41:46;7.63;;;2.45;;
31262;SDS011;17892;52.080;9.006;2022-12-07T06:44:12;3.70;;;2.08;;
31262;SDS011;17892;52.080;9.006;2022-12-07T06:46:38;3.55;;;2.00;;
31262;SDS011;17892;52.080;9.006;2022-12-07T06:49:04;5.93;;;2.75;;
31262;SDS011;17892;52.080;9.006;2022-12-07T06:51:31;5.85;;;2.33;;
31262;SDS011;17892;52.080;9.006;2022-12-07T06:53:57;5.78;;;2.50;;
31262;SDS011;17892;52.080;9.006;2022-12-07T06:56:23;5.05;;;2.67;;
31262;SDS011;17892;52.080;9.006;2022-12-07T06:58:49;4.57;;;2.15;;
31262;SDS011;17892;52.080;9.006;2022-12-07T07:01:16;4.57;;;2.33;;
31262;SDS011;17892;52.080;9.006;2022-12-07T07:03:43;6.57;;;3.80;;
31262;SDS011;17892;52.080;9.006;2022-12-07T07:06:10;6.15;;;3.03;;
31262;SDS011;17892;52.080;9.006;2022-12-07T07:08:37;6.68;;;2.88;;
31262;SDS011;17892;52.080;9.006;2022-12-07T07:11:04;5.30;;;3.05;;
31262;SDS011;17892;52.080;9.006;2022-12-07T07:13:31;5.95;;;2.75;;
31262;SDS011;17892;52.080;9.006;2022-12-07T07:15:57;4.40;;;2.58;;
31262;SDS011;17892;52.080;9.006;2022-12-07T07:18:23;8.55;;;2.63;;
31262;SDS011;17892;52.080;9.006;2022-12-07T07:20:50;4.38;;;2.13;;
31262;SDS011;17892;52.080;9.006;2022-12-07T07:23:17;6.72;;;2.75;;
31262;SDS011;17892;52.080;9.006;2022-12-07T07:25:44;4.78;;;2.83;;
31262;SDS011;17892;52.080;9.006;2022-12-07T07:28:10;5.90;;;2.72;;
31262;SDS011;17892;52.080;9.006;2022-12-07T07:30:36;4.63;;;2.30;;
31262;SDS011;17892;52.080;9.006;2022-12-07T07:33:03;6.55;;;2.35;;
31262;SDS011;17892;52.080;9.006;2022-12-07T07:35:31;4.88;;;1.95;;
31262;SDS011;17892;52.080;9.006;2022-12-07T07:37:58;4.75;;;2.33;;
31262;SDS011;17892;52.080;9.006;2022-12-07T07:40:25;5.32;;;2.65;;
31262;SDS011;17892;52.080;9.006;2022-12-07T07:42:52;4.10;;;2.35;;
31262;SDS011;17892;52.080;9.006;2022-12-07T07:45:19;7.15;;;2.75;;
31262;SDS011;17892;52.080;9.006;2022-12-07T07:47:47;5.82;;;2.58;;
31262;SDS011;17892;52.080;9.006;2022-12-07T07:50:13;3.58;;;1.92;;
31262;SDS011;17892;52.080;9.006;2022-12-07T07:52:39;4.22;;;2.38;;
31262;SDS011;17892;52.080;9.006;2022-12-07T07:55:05;4.63;;;2.17;;
31262;SDS011;17892;52.080;9.006;2022-12-07T08:00:03;5.63;;;2.60;;
31262;SDS011;17892;52.080;9.006;2022-12-07T08:02:31;4.68;;;2.58;;
31262;SDS011;17892;52.080;9.006;2022-12-07T08:04:57;4.25;;;2.55;;
31262;SDS011;17892;52.080;9.006;2022-12-07T08:07:23;5.60;;;2.10;;
31262;SDS011;17892;52.080;9.006;2022-12-07T08:09:48;5.35;;;2.20;;
31262;SDS011;17892;52.080;9.006;2022-12-07T08:12:14;4.40;;;2.17;;
31262;SDS011;17892;52.080;9.006;2022-12-07T08:14:40;5.75;;;2.28;;
31262;SDS011;17892;52.080;9.006;2022-12-07T08:17:06;4.30;;;2.08;;
31262;SDS011;17892;52.080;9.006;2022-12-07T08:19:32;3.45;;;1.70;;
31262;SDS011;17892;52.080;9.006;2022-12-07T08:21:58;4.45;;;2.10;;
31262;SDS011;17892;52.080;9.006;2022-12-07T08:24:23;3.92;;;1.83;;
31262;SDS011;17892;52.080;9.006;2022-12-07T08:26:50;4.28;;;1.90;;
31262;SDS011;17892;52.080;9.006;2022-12-07T08:29:16;6.85;;;2.08;;
31262;SDS011;17892;52.080;9.006;2022-12-07T08:31:42;5.65;;;2.28;;
31262;SDS011;17892;52.080;9.006;2022-12-07T08:34:09;6.68;;;2.15;;
31262;SDS011;17892;52.080;9.006;2022-12-07T08:36:36;5.68;;;2.22;;
31262;SDS011;17892;52.080;9.006;2022-12-07T08:39:02;3.42;;;2.00;;
31262;SDS011;17892;52.080;9.006;2022-12-07T08:41:28;7.43;;;2.17;;
31262;SDS011;17892;52.080;9.006;2022-12-07T08:43:54;9.40;;;3.30;;
31262;SDS011;17892;52.080;9.006;2022-12-07T08:46:28;5.05;;;2.50;;
31262;SDS011;17892;52.080;9.006;2022-12-07T08:49:13;5.40;;;2.28;;
31262;SDS011;17892;52.080;9.006;2022-12-07T08:51:46;8.07;;;2.60;;
31262;SDS011;17892;52.080;9.006;2022-12-07T08:54:13;4.22;;;1.85;;
31262;SDS011;17892;52.080;9.006;2022-12-07T08:56:42;5.07;;;2.03;;
31262;SDS011;17892;52.080;9.006;2022-12-07T08:59:09;5.22;;;2.30;;
31262;SDS011;17892;52.080;9.006;2022-12-07T09:01:36;5.43;;;2.40;;
31262;SDS011;17892;52.080;9.006;2022-12-07T09:04:02;3.28;;;1.95;;
31262;SDS011;17892;52.080;9.006;2022-12-07T09:06:28;4.88;;;2.20;;
31262;SDS011;17892;52.080;9.006;2022-12-07T09:08:55;3.47;;;1.52;;
31262;SDS011;17892;52.080;9.006;2022-12-07T09:11:23;3.53;;;1.48;;
31262;SDS011;17892;52.080;9.006;2022-12-07T09:13:49;4.80;;;1.98;;
31262;SDS011;17892;52.080;9.006;2022-12-07T09:16:14;7.65;;;1.83;;
31262;SDS011;17892;52.080;9.006;2022-12-07T09:18:40;5.53;;;1.67;;
31262;SDS011;17892;52.080;9.006;2022-12-07T09:21:06;7.68;;;1.98;;
31262;SDS011;17892;52.080;9.006;2022-12-07T09:23:32;4.07;;;1.77;;
31262;SDS011;17892;52.080;9.006;2022-12-07T09:25:59;4.38;;;2.30;;
31262;SDS011;17892;52.080;9.006;2022-12-07T09:28:25;4.95;;;2.30;;
31262;SDS011;17892;52.080;9.006;2022-12-07T09:30:51;4.13;;;1.92;;
31262;SDS011;17892;52.080;9.006;2022-12-07T09:33:17;5.65;;;1.75;;
31262;SDS011;17892;52.080;9.006;2022-12-07T09:35:47;5.65;;;2.30;;
31262;SDS011;17892;52.080;9.006;2022-12-07T09:38:15;4.45;;;1.70;;
31262;SDS011;17892;52.080;9.006;2022-12-07T09:40:41;3.53;;;1.58;;
31262;SDS011;17892;52.080;9.006;2022-12-07T09:43:15;5.05;;;2.53;;
31262;SDS011;17892;52.080;9.006;2022-12-07T09:45:45;3.65;;;1.77;;
31262;SDS011;17892;52.080;9.006;2022-12-07T09:48:25;5.22;;;1.88;;
31262;SDS011;17892;52.080;9.006;2022-12-07T09:51:10;5.18;;;1.95;;
31262;SDS011;17892;52.080;9.006;2022-12-07T09:53:47;3.55;;;1.63;;
31262;SDS011;17892;52.080;9.006;2022-12-07T09:56:14;3.42;;;1.65;;
31262;SDS011;17892;52.080;9.006;2022-12-07T09:58:42;3.75;;;1.40;;
31262;SDS011;17892;52.080;9.006;2022-12-07T10:01:11;7.13;;;2.10;;
31262;SDS011;17892;52.080;9.006;2022-12-07T10:03:48;3.78;;;2.17;;
31262;SDS011;17892;52.080;9.006;2022-12-07T10:06:16;5.25;;;2.17;;
31262;SDS011;17892;52.080;9.006;2022-12-07T10:08:42;5.18;;;2.10;;
31262;SDS011;17892;52.080;9.006;2022-12-07T10:11:08;3.80;;;1.75;;
31262;SDS011;17892;52.080;9.006;2022-12-07T10:13:45;4.40;;;1.40;;
31262;SDS011;17892;52.080;9.006;2022-12-07T10:16:35;3.05;;;1.50;;
31262;SDS011;17892;52.080;9.006;2022-12-07T10:19:19;5.43;;;1.20;;
31262;SDS011;17892;52.080;9.006;2022-12-07T10:24:30;4.20;;;1.33;;
31262;SDS011;17892;52.080;9.006;2022-12-07T10:26:57;4.80;;;1.27;;
31262;SDS011;17892;52.080;9.006;2022-12-07T10:29:38;6.25;;;1.65;;
31262;SDS011;17892;52.080;9.006;2022-12-07T10:34:39;5.10;;;1.17;;
31262;SDS011;17892;52.080;9.006;2022-12-07T10:37:16;4.63;;;1.30;;
31262;SDS011;17892;52.080;9.006;2022-12-07T10:39:51;5.10;;;1.35;;
31262;SDS011;17892;52.080;9.006;2022-12-07T10:44:45;5.32;;;1.45;;
31262;SDS011;17892;52.080;9.006;2022-12-07T10:47:29;3.03;;;0.88;;
31262;SDS011;17892;52.080;9.006;2022-12-07T10:50:37;5.65;;;1.63;;
31262;SDS011;17892;52.080;9.006;2022-12-07T11:00:09;4.13;;;1.45;;
31262;SDS011;17892;52.080;9.006;2022-12-07T11:08:27;3.35;;;1.05;;
31262;SDS011;17892;52.080;9.006;2022-12-07T11:11:34;6.28;;;1.63;;
31262;SDS011;17892;52.080;9.006;2022-12-07T11:14:05;7.60;;;1.98;;
31262;SDS011;17892;52.080;9.006;2022-12-07T11:17:36;4.20;;;2.13;;
31262;SDS011;17892;52.080;9.006;2022-12-07T11:37:16;4.13;;;1.30;;
31262;SDS011;17892;52.080;9.006;2022-12-07T11:39:51;3.38;;;1.33;;
31262;SDS011;17892;52.080;9.006;2022-12-07T11:42:27;4.47;;;1.13;;
31262;SDS011;17892;52.080;9.006;2022-12-07T11:53:09;6.13;;;1.27;;
31262;SDS011;17892;52.080;9.006;2022-12-07T12:06:35;3.70;;;1.02;;
31262;SDS011;17892;52.080;9.006;2022-12-07T12:14:54;4.75;;;1.40;;
31262;SDS011;17892;52.080;9.006;2022-12-07T12:17:48;5.72;;;1.70;;
31262;SDS011;17892;52.080;9.006;2022-12-07T12:20:28;4.40;;;1.45;;
31262;SDS011;17892;52.080;9.006;2022-12-07T12:23:07;3.97;;;1.38;;
31262;SDS011;17892;52.080;9.006;2022-12-07T12:25:41;3.85;;;1.30;;
31262;SDS011;17892;52.080;9.006;2022-12-07T12:28:19;3.25;;;1.10;;
31262;SDS011;17892;52.080;9.006;2022-12-07T12:31:13;3.50;;;1.05;;
31262;SDS011;17892;52.080;9.006;2022-12-07T12:33:53;4.85;;;1.10;;
31262;SDS011;17892;52.080;9.006;2022-12-07T12:36:25;3.20;;;1.05;;
31262;SDS011;17892;52.080;9.006;2022-12-07T12:46:56;3.30;;;1.10;;
31262;SDS011;17892;52.080;9.006;2022-12-07T12:54:38;4.88;;;1.33;;
31262;SDS011;17892;52.080;9.006;2022-12-07T12:57:28;3.22;;;1.20;;
31262;SDS011;17892;52.080;9.006;2022-12-07T12:59:59;4.00;;;1.25;;
31262;SDS011;17892;52.080;9.006;2022-12-07T13:03:17;4.70;;;1.15;;
31262;SDS011;17892;52.080;9.006;2022-12-07T13:05:30;5.35;;;1.45;;
31262;SDS011;17892;52.080;9.006;2022-12-07T13:07:57;2.95;;;1.10;;
31262;SDS011;17892;52.080;9.006;2022-12-07T13:10:35;4.88;;;1.67;;
31262;SDS011;17892;52.080;9.006;2022-12-07T13:28:49;4.15;;;0.90;;
31262;SDS011;17892;52.080;9.006;2022-12-07T13:31:42;2.53;;;0.90;;
31262;SDS011;17892;52.080;9.006;2022-12-07T13:34:31;4.65;;;1.08;;
31262;SDS011;17892;52.080;9.006;2022-12-07T13:40:00;3.00;;;0.70;;
31262;SDS011;17892;52.080;9.006;2022-12-07T13:42:43;4.22;;;1.20;;
31262;SDS011;17892;52.080;9.006;2022-12-07T13:45:23;2.10;;;0.80;;
31262;SDS011;17892;52.080;9.006;2022-12-07T13:51:16;4.47;;;1.05;;
31262;SDS011;17892;52.080;9.006;2022-12-07T13:54:08;2.20;;;0.80;;
31262;SDS011;17892;52.080;9.006;2022-12-07T13:56:36;3.10;;;0.93;;
31262;SDS011;17892;52.080;9.006;2022-12-07T13:59:05;3.92;;;0.90;;
31262;SDS011;17892;52.080;9.006;2022-12-07T14:01:39;4.95;;;0.90;;
31262;SDS011;17892;52.080;9.006;2022-12-07T14:10:00;5.20;;;1.10;;
31262;SDS011;17892;52.080;9.006;2022-12-07T14:12:31;4.20;;;1.30;;
31262;SDS011;17892;52.080;9.006;2022-12-07T14:14:58;4.88;;;1.08;;
31262;SDS011;17892;52.080;9.006;2022-12-07T14:17:27;3.13;;;0.90;;
31262;SDS011;17892;52.080;9.006;2022-12-07T14:25:09;2.85;;;0.90;;
31262;SDS011;17892;52.080;9.006;2022-12-07T14:27:48;5.35;;;1.17;;
31262;SDS011;17892;52.080;9.006;2022-12-07T14:30:23;3.15;;;0.85;;
31262;SDS011;17892;52.080;9.006;2022-12-07T14:32:56;4.53;;;0.68;;
31262;SDS011;17892;52.080;9.006;2022-12-07T14:35:25;3.78;;;0.98;;
31262;SDS011;17892;52.080;9.006;2022-12-07T14:37:52;4.75;;;0.90;;
31262;SDS011;17892;52.080;9.006;2022-12-07T14:40:19;3.60;;;0.95;;
31262;SDS011;17892;52.080;9.006;2022-12-07T14:45:17;4.57;;;0.98;;
31262;SDS011;17892;52.080;9.006;2022-12-07T14:47:46;3.90;;;1.10;;
31262;SDS011;17892;52.080;9.006;2022-12-07T14:50:16;4.25;;;1.08;;
31262;SDS011;17892;52.080;9.006;2022-12-07T14:52:44;4.68;;;1.40;;
31262;SDS011;17892;52.080;9.006;2022-12-07T14:55:20;5.57;;;1.42;;
31262;SDS011;17892;52.080;9.006;2022-12-07T14:57:50;4.43;;;1.20;;
31262;SDS011;17892;52.080;9.006;2022-12-07T15:00:17;3.30;;;1.25;;
31262;SDS011;17892;52.080;9.006;2022-12-07T15:02:45;4.53;;;1.10;;
31262;SDS011;17892;52.080;9.006;2022-12-07T15:05:12;4.00;;;1.20;;
31262;SDS011;17892;52.080;9.006;2022-12-07T15:07:38;4.80;;;1.05;;
31262;SDS011;17892;52.080;9.006;2022-12-07T15:10:04;3.58;;;1.23;;
31262;SDS011;17892;52.080;9.006;2022-12-07T15:12:34;3.90;;;1.30;;
31262;SDS011;17892;52.080;9.006;2022-12-07T15:14:59;5.63;;;1.40;;
31262;SDS011;17892;52.080;9.006;2022-12-07T15:17:26;3.40;;;0.90;;
31262;SDS011;17892;52.080;9.006;2022-12-07T15:19:52;3.33;;;1.25;;
31262;SDS011;17892;52.080;9.006;2022-12-07T15:22:17;3.55;;;0.90;;
31262;SDS011;17892;52.080;9.006;2022-12-07T15:24:43;4.50;;;0.88;;
31262;SDS011;17892;52.080;9.006;2022-12-07T15:27:09;3.80;;;1.40;;
31262;SDS011;17892;52.080;9.006;2022-12-07T15:29:35;3.88;;;1.05;;
31262;SDS011;17892;52.080;9.006;2022-12-07T15:32:00;3.60;;;1.10;;
31262;SDS011;17892;52.080;9.006;2022-12-07T15:34:27;1.88;;;0.70;;
31262;SDS011;17892;52.080;9.006;2022-12-07T15:36:53;7.82;;;1.17;;
31262;SDS011;17892;52.080;9.006;2022-12-07T15:39:19;7.60;;;1.42;;
31262;SDS011;17892;52.080;9.006;2022-12-07T15:41:46;4.20;;;0.98;;
31262;SDS011;17892;52.080;9.006;2022-12-07T15:44:13;2.08;;;0.70;;
31262;SDS011;17892;52.080;9.006;2022-12-07T15:46:58;3.67;;;1.02;;
31262;SDS011;17892;52.080;9.006;2022-12-07T15:49:24;5.78;;;1.00;;
31262;SDS011;17892;52.080;9.006;2022-12-07T15:51:50;4.32;;;0.80;;
31262;SDS011;17892;52.080;9.006;2022-12-07T15:54:18;2.80;;;0.77;;
31262;SDS011;17892;52.080;9.006;2022-12-07T15:56:53;5.03;;;1.10;;
31262;SDS011;17892;52.080;9.006;2022-12-07T15:59:20;3.75;;;0.85;;
31262;SDS011;17892;52.080;9.006;2022-12-07T16:01:47;4.25;;;1.35;;
31262;SDS011;17892;52.080;9.006;2022-12-07T16:04:13;4.32;;;1.15;;
31262;SDS011;17892;52.080;9.006;2022-12-07T16:06:39;3.22;;;1.20;;
31262;SDS011;17892;52.080;9.006;2022-12-07T16:09:05;3.83;;;1.00;;
31262;SDS011;17892;52.080;9.006;2022-12-07T16:11:31;2.40;;;0.90;;
31262;SDS011;17892;52.080;9.006;2022-12-07T16:13:57;4.13;;;1.05;;
31262;SDS011;17892;52.080;9.006;2022-12-07T16:16:23;4.95;;;1.20;;
31262;SDS011;17892;52.080;9.006;2022-12-07T16:18:49;3.55;;;1.45;;
31262;SDS011;17892;52.080;9.006;2022-12-07T16:21:16;5.32;;;1.90;;
31262;SDS011;17892;52.080;9.006;2022-12-07T16:23:42;2.95;;;1.15;;
31262;SDS011;17892;52.080;9.006;2022-12-07T16:26:12;5.05;;;1.60;;
31262;SDS011;17892;52.080;9.006;2022-12-07T16:28:41;3.03;;;0.98;;
31262;SDS011;17892;52.080;9.006;2022-12-07T16:31:12;3.20;;;0.68;;
31262;SDS011;17892;52.080;9.006;2022-12-07T16:33:40;2.97;;;0.80;;
31262;SDS011;17892;52.080;9.006;2022-12-07T16:36:08;2.25;;;0.68;;
31262;SDS011;17892;52.080;9.006;2022-12-07T16:38:35;2.72;;;0.90;;
31262;SDS011;17892;52.080;9.006;2022-12-07T16:41:02;3.35;;;1.20;;
31262;SDS011;17892;52.080;9.006;2022-12-07T16:43:30;5.55;;;1.30;;
31262;SDS011;17892;52.080;9.006;2022-12-07T16:45:55;4.05;;;1.52;;
31262;SDS011;17892;52.080;9.006;2022-12-07T16:48:21;4.68;;;1.45;;
31262;SDS011;17892;52.080;9.006;2022-12-07T16:50:47;3.58;;;1.10;;
31262;SDS011;17892;52.080;9.006;2022-12-07T16:53:13;3.90;;;1.58;;
31262;SDS011;17892;52.080;9.006;2022-12-07T16:55:41;5.85;;;1.45;;
31262;SDS011;17892;52.080;9.006;2022-12-07T16:58:09;3.80;;;1.45;;
31262;SDS011;17892;52.080;9.006;2022-12-07T17:00:37;5.45;;;1.55;;
31262;SDS011;17892;52.080;9.006;2022-12-07T17:03:03;3.28;;;1.10;;
31262;SDS011;17892;52.080;9.006;2022-12-07T17:05:29;3.40;;;0.98;;
31262;SDS011;17892;52.080;9.006;2022-12-07T17:07:56;2.47;;;0.80;;
31262;SDS011;17892;52.080;9.006;2022-12-07T17:10:22;4.43;;;0.90;;
31262;SDS011;17892;52.080;9.006;2022-12-07T17:12:49;3.60;;;0.80;;
31262;SDS011;17892;52.080;9.006;2022-12-07T17:15:16;3.80;;;0.90;;
31262;SDS011;17892;52.080;9.006;2022-12-07T17:17:43;5.57;;;1.10;;
31262;SDS011;17892;52.080;9.006;2022-12-07T17:20:18;1.73;;;0.52;;
31262;SDS011;17892;52.080;9.006;2022-12-07T17:22:44;2.45;;;0.85;;
31262;SDS011;17892;52.080;9.006;2022-12-07T17:25:11;4.90;;;1.58;;